createdAt,value
2022-09-11T00:00:00.889Z,5.85
2022-09-11T00:02:31.348Z,5.70
2022-09-11T00:05:01.759Z,6.00
2022-09-11T00:07:32.119Z,5.83
2022-09-11T00:10:02.481Z,5.70
2022-09-11T00:12:33.242Z,5.78
2022-09-11T00:15:03.605Z,5.80
2022-09-11T00:17:34.005Z,6.17
2022-09-11T00:20:05.570Z,6.08
2022-09-11T00:22:36.000Z,5.78
2022-09-11T00:25:06.756Z,6.37
2022-09-11T00:27:37.075Z,6.12
2022-09-11T00:30:08.405Z,6.47
2022-09-11T00:32:38.969Z,5.87
2022-09-11T00:35:10.016Z,6.20
2022-09-11T00:37:40.389Z,5.83
2022-09-11T00:40:11.433Z,5.97
2022-09-11T00:42:42.347Z,5.47
2022-09-11T00:45:25.142Z,5.90
2022-09-11T00:47:58.815Z,6.00
2022-09-11T00:50:31.347Z,6.20
2022-09-11T00:53:08.057Z,5.80
2022-09-11T00:55:40.974Z,5.72
2022-09-11T00:58:14.466Z,6.22
2022-09-11T01:00:46.375Z,6.22
2022-09-11T01:03:17.026Z,5.45
2022-09-11T01:05:48.198Z,6.12
2022-09-11T01:08:18.574Z,5.80
2022-09-11T01:11:13.478Z,5.83
2022-09-11T01:13:52.889Z,5.40
2022-09-11T01:16:53.518Z,5.58
2022-09-11T01:20:03.544Z,6.37
2022-09-11T01:22:40.076Z,5.70
2022-09-11T01:25:37.651Z,5.87
2022-09-11T01:28:11.111Z,5.90
2022-09-11T01:30:46.142Z,5.28
2022-09-11T01:33:25.608Z,5.62
2022-09-11T01:36:11.701Z,5.75
2022-09-11T01:38:48.085Z,5.40
2022-09-11T01:41:55.127Z,5.40
2022-09-11T01:44:37.203Z,5.45
2022-09-11T01:47:10.692Z,5.95
2022-09-11T01:49:48.100Z,5.60
2022-09-11T01:52:21.462Z,5.60
2022-09-11T01:54:54.848Z,5.62
2022-09-11T01:57:46.264Z,5.85
2022-09-11T02:00:17.240Z,6.00
2022-09-11T02:02:53.538Z,5.92
2022-09-11T02:05:29.718Z,5.97
2022-09-11T02:08:06.197Z,6.45
2022-09-11T02:10:39.586Z,6.20
2022-09-11T02:13:27.782Z,6.08
2022-09-11T02:16:00.269Z,6.10
2022-09-11T02:18:33.764Z,6.28
2022-09-11T02:21:04.122Z,6.17
2022-09-11T02:23:34.438Z,6.35
2022-09-11T02:26:06.077Z,6.20
2022-09-11T02:28:37.346Z,6.28
2022-09-11T02:31:07.766Z,6.40
2022-09-11T02:33:39.098Z,6.65
2022-09-11T02:36:24.750Z,6.25
2022-09-11T02:39:00.899Z,5.92
2022-09-11T02:41:50.055Z,6.25
2022-09-11T02:44:23.735Z,5.92
2022-09-11T02:47:05.788Z,6.10
2022-09-11T02:50:00.202Z,5.80
2022-09-11T02:52:40.978Z,6.22
2022-09-11T02:55:41.406Z,5.83
2022-09-11T02:58:17.335Z,5.83
2022-09-11T03:00:47.959Z,6.35
2022-09-11T03:03:19.260Z,5.92
2022-09-11T03:05:49.549Z,6.37
2022-09-11T03:08:20.340Z,6.33
2022-09-11T03:10:50.717Z,7.08
2022-09-11T03:13:21.086Z,7.55
2022-09-11T03:15:51.471Z,7.22
2022-09-11T03:18:21.768Z,7.47
2022-09-11T03:20:52.070Z,8.43
2022-09-11T03:23:22.677Z,7.87
2022-09-11T03:25:53.184Z,8.00
2022-09-11T03:28:24.218Z,7.78
2022-09-11T03:30:54.513Z,8.65
2022-09-11T03:33:25.078Z,9.23
2022-09-11T03:35:55.777Z,9.85
2022-09-11T03:38:26.100Z,8.70
2022-09-11T03:40:56.480Z,11.25
2022-09-11T03:43:26.813Z,9.98
2022-09-11T03:45:57.293Z,11.33
2022-09-11T03:48:29.174Z,10.58
2022-09-11T03:50:59.916Z,10.40
2022-09-11T03:53:32.035Z,11.60
2022-09-11T03:56:04.072Z,10.88
2022-09-11T03:58:34.730Z,10.95
2022-09-11T04:01:13.879Z,10.53
2022-09-11T04:03:44.343Z,13.13
2022-09-11T04:06:14.789Z,13.60
2022-09-11T04:08:45.329Z,11.60
2022-09-11T04:11:16.482Z,11.10
2022-09-11T04:13:46.909Z,9.68
2022-09-11T04:16:19.275Z,9.48
2022-09-11T04:18:51.271Z,9.30
2022-09-11T04:21:21.644Z,9.85
2022-09-11T04:23:54.727Z,10.48
2022-09-11T04:26:26.644Z,10.75
2022-09-11T04:28:57.243Z,11.05
2022-09-11T04:31:27.982Z,10.40
2022-09-11T04:33:59.497Z,10.55
2022-09-11T04:36:29.887Z,10.98
2022-09-11T04:39:00.881Z,11.25
2022-09-11T04:41:31.358Z,11.10
2022-09-11T04:44:05.246Z,15.98
2022-09-11T04:46:34.486Z,10.63
2022-09-11T04:49:05.107Z,11.45
2022-09-11T04:51:40.591Z,18.85
2022-09-11T04:54:16.499Z,11.55
2022-09-11T04:56:46.881Z,11.83
2022-09-11T04:59:20.316Z,11.10
2022-09-11T05:01:52.154Z,11.12
2022-09-11T05:04:25.953Z,12.05
2022-09-11T05:06:55.034Z,12.25
2022-09-11T05:09:27.791Z,12.20
2022-09-11T05:11:58.121Z,12.43
2022-09-11T05:14:30.968Z,11.68
2022-09-11T05:17:01.529Z,12.37
2022-09-11T05:19:31.949Z,11.70
2022-09-11T05:22:02.316Z,11.90
2022-09-11T05:24:32.632Z,12.68
2022-09-11T05:27:03.059Z,13.38
2022-09-11T05:29:33.404Z,15.35
2022-09-11T05:32:05.914Z,13.13
2022-09-11T05:34:36.246Z,13.25
2022-09-11T05:37:06.660Z,13.30
2022-09-11T05:39:37.215Z,13.62
2022-09-11T05:42:07.788Z,13.50
2022-09-11T05:44:38.175Z,15.18
2022-09-11T05:47:08.605Z,14.05
2022-09-11T05:49:38.945Z,13.90
2022-09-11T05:52:09.708Z,14.13
2022-09-11T05:54:40.565Z,14.00
2022-09-11T05:57:10.947Z,20.57
2022-09-11T05:59:41.267Z,16.02
2022-09-11T06:02:12.298Z,17.00
2022-09-11T06:04:42.650Z,15.98
2022-09-11T06:07:13.159Z,15.93
2022-09-11T06:09:43.620Z,16.48
2022-09-11T06:12:13.990Z,18.45
2022-09-11T06:14:44.316Z,16.67
2022-09-11T06:17:14.696Z,15.68
2022-09-11T06:19:45.109Z,15.83
2022-09-11T06:22:15.460Z,15.75
2022-09-11T06:24:47.053Z,16.67
2022-09-11T06:27:19.039Z,15.75
2022-09-11T06:29:49.537Z,15.72
2022-09-11T06:32:19.955Z,15.43
2022-09-11T06:34:50.351Z,15.50
2022-09-11T06:37:21.155Z,14.87
2022-09-11T06:39:51.853Z,15.03
2022-09-11T06:42:22.865Z,14.78
2022-09-11T06:44:53.271Z,17.87
2022-09-11T06:47:23.669Z,20.15
2022-09-11T06:49:53.994Z,18.07
2022-09-11T06:52:24.303Z,15.23
2022-09-11T06:54:54.715Z,14.98
2022-09-11T06:57:25.076Z,13.65
2022-09-11T06:59:57.196Z,14.75
2022-09-11T07:02:27.854Z,12.95
2022-09-11T07:04:58.240Z,13.85
2022-09-11T07:07:28.561Z,21.07
2022-09-11T07:10:00.503Z,14.55
2022-09-11T07:12:32.017Z,13.20
2022-09-11T07:15:02.350Z,12.65
2022-09-11T07:17:32.918Z,13.30
2022-09-11T07:20:05.872Z,12.78
2022-09-11T07:22:36.187Z,12.98
2022-09-11T07:25:07.852Z,12.82
2022-09-11T07:27:38.283Z,12.78
2022-09-11T07:30:09.490Z,12.18
2022-09-11T07:32:39.835Z,12.80
2022-09-11T07:35:10.249Z,12.50
2022-09-11T07:37:40.585Z,12.85
2022-09-11T07:40:12.216Z,11.83
2022-09-11T07:42:42.676Z,11.88
2022-09-11T07:45:13.040Z,11.70
2022-09-11T07:47:43.399Z,11.75
2022-09-11T07:50:14.328Z,11.80
2022-09-11T07:52:44.672Z,11.90
2022-09-11T07:55:15.118Z,10.95
2022-09-11T07:57:46.460Z,10.88
2022-09-11T08:00:17.182Z,10.70
2022-09-11T08:02:48.796Z,11.38
2022-09-11T08:05:19.446Z,10.58
2022-09-11T08:07:49.834Z,10.93
2022-09-11T08:10:28.203Z,10.48
2022-09-11T08:12:54.781Z,10.88
2022-09-11T08:15:25.028Z,11.85
2022-09-11T08:17:55.441Z,10.58
2022-09-11T08:20:25.823Z,10.68
2022-09-11T08:22:56.328Z,10.88
2022-09-11T08:25:28.268Z,11.05
2022-09-11T08:27:59.653Z,11.10
2022-09-11T08:30:30.041Z,9.68
2022-09-11T08:33:01.371Z,10.50
2022-09-11T08:35:31.852Z,10.65
2022-09-11T08:38:03.323Z,9.88
2022-09-11T08:40:37.944Z,12.70
2022-09-11T08:43:11.420Z,12.75
2022-09-11T08:45:41.731Z,10.72
2022-09-11T08:48:13.337Z,10.58
2022-09-11T08:50:45.090Z,11.00
2022-09-11T08:53:18.823Z,11.10
2022-09-11T08:55:52.277Z,10.45
2022-09-11T08:59:02.150Z,10.48
2022-09-11T09:01:50.409Z,10.08
2022-09-11T09:04:40.598Z,10.20
2022-09-11T09:07:13.954Z,10.45
2022-09-11T09:09:59.389Z,11.03
2022-09-11T09:12:41.892Z,10.48
2022-09-11T09:15:36.327Z,12.35
2022-09-11T09:18:21.814Z,10.70
2022-09-11T09:21:13.685Z,11.55
2022-09-11T09:23:47.073Z,10.68
2022-09-11T09:26:21.096Z,11.30
2022-09-11T09:28:54.638Z,11.78
2022-09-11T09:31:28.105Z,10.75
2022-09-11T09:34:04.168Z,10.30
2022-09-11T09:36:49.390Z,9.43
2022-09-11T09:39:20.347Z,9.63
2022-09-11T09:41:54.089Z,10.00
2022-09-11T09:44:43.979Z,10.78
2022-09-11T09:47:15.685Z,9.03
2022-09-11T09:49:46.643Z,9.95
2022-09-11T09:52:22.254Z,9.23
2022-09-11T09:54:59.716Z,10.08
2022-09-11T09:57:35.422Z,9.80
2022-09-11T10:00:09.274Z,9.38
2022-09-11T10:02:50.477Z,11.08
2022-09-11T10:05:29.577Z,10.03
2022-09-11T10:08:03.210Z,10.18
2022-09-11T10:10:36.839Z,9.88
2022-09-11T10:13:19.883Z,9.43
2022-09-11T10:15:50.293Z,8.70
2022-09-11T10:18:40.177Z,9.00
2022-09-11T10:21:16.598Z,9.05
2022-09-11T10:24:01.214Z,9.23
2022-09-11T10:26:37.483Z,9.25
2022-09-11T10:29:16.697Z,9.35
2022-09-11T10:31:52.759Z,8.20
2022-09-11T10:34:26.056Z,7.50
2022-09-11T10:37:00.680Z,8.03
2022-09-11T10:39:34.703Z,8.08
2022-09-11T10:42:11.774Z,7.72
2022-09-11T10:44:47.348Z,7.47
2022-09-11T10:47:29.092Z,10.13
2022-09-11T10:50:18.900Z,7.83
2022-09-11T10:53:19.502Z,7.55
2022-09-11T10:56:06.021Z,7.50
2022-09-11T10:58:39.627Z,7.17
2022-09-11T11:01:10.294Z,7.20
2022-09-11T11:03:40.702Z,7.33
2022-09-11T11:06:49.188Z,8.00
2022-09-11T11:09:43.807Z,8.70
2022-09-11T11:12:23.057Z,9.48
2022-09-11T11:15:30.078Z,8.98
2022-09-11T11:18:15.446Z,9.18
2022-09-11T11:20:57.669Z,11.48
2022-09-11T11:23:55.400Z,9.55
2022-09-11T11:26:43.094Z,7.97
2022-09-11T11:29:45.862Z,7.80
2022-09-11T11:32:27.947Z,7.00
2022-09-11T11:35:07.122Z,7.08
2022-09-11T11:37:45.396Z,7.15
2022-09-11T11:40:46.372Z,7.58
2022-09-11T11:43:19.749Z,5.97
2022-09-11T11:45:56.044Z,5.78
2022-09-11T11:48:39.725Z,5.10
2022-09-11T11:51:21.948Z,7.80
2022-09-11T11:54:01.302Z,5.05
2022-09-11T11:56:54.830Z,5.22
2022-09-11T11:59:29.915Z,6.20
2022-09-11T12:02:18.887Z,6.00
2022-09-11T12:04:55.200Z,5.75
2022-09-11T12:07:34.175Z,5.35
2022-09-11T12:10:07.124Z,5.30
2022-09-11T12:12:47.721Z,6.03
2022-09-11T12:15:21.377Z,5.65
2022-09-11T12:18:03.606Z,5.78
2022-09-11T12:20:42.159Z,5.70
2022-09-11T12:23:32.453Z,5.85
2022-09-11T12:26:11.681Z,5.60
2022-09-11T12:28:42.285Z,5.58
2022-09-11T12:31:14.875Z,6.05
2022-09-11T12:33:50.776Z,5.47
2022-09-11T12:36:28.510Z,5.40
2022-09-11T12:39:07.185Z,12.98
2022-09-11T12:41:38.346Z,6.80
2022-09-11T12:44:12.485Z,6.17
2022-09-11T12:46:51.513Z,5.30
2022-09-11T12:49:23.553Z,6.30
2022-09-11T12:51:59.729Z,4.65
2022-09-11T12:54:35.962Z,4.67
2022-09-11T12:57:19.810Z,4.15
2022-09-11T12:59:56.514Z,4.42
2022-09-11T13:02:35.399Z,6.97
2022-09-11T13:05:09.136Z,4.60
2022-09-11T13:07:45.352Z,4.45
2022-09-11T13:10:33.972Z,4.42
2022-09-11T13:13:07.190Z,5.20
2022-09-11T13:15:41.141Z,4.90
2022-09-11T13:18:31.158Z,5.22
2022-09-11T13:21:04.660Z,5.05
2022-09-11T13:23:34.973Z,5.20
2022-09-11T13:26:07.995Z,5.60
2022-09-11T13:28:48.067Z,5.95
2022-09-11T13:31:33.845Z,7.97
2022-09-11T13:34:10.022Z,8.85
2022-09-11T13:36:41.427Z,7.47
2022-09-11T13:39:13.602Z,6.12
2022-09-11T13:41:46.783Z,5.72
2022-09-11T13:44:39.934Z,5.22
2022-09-11T13:47:22.100Z,5.15
2022-09-11T13:49:55.741Z,4.45
2022-09-11T13:52:28.707Z,4.20
2022-09-11T13:55:04.466Z,3.60
2022-09-11T13:57:35.208Z,3.70
2022-09-11T14:00:05.829Z,3.42
2022-09-11T14:02:48.387Z,3.72
2022-09-11T14:05:22.082Z,3.30
2022-09-11T14:08:07.809Z,3.70
2022-09-11T14:10:41.200Z,3.25
2022-09-11T14:13:20.479Z,5.10
2022-09-11T14:16:10.833Z,3.67
2022-09-11T14:19:00.825Z,17.98
2022-09-11T14:21:35.904Z,5.45
2022-09-11T14:24:09.295Z,3.40
2022-09-11T14:26:43.098Z,3.42
2022-09-11T14:29:31.667Z,12.20
2022-09-11T14:32:34.116Z,3.98
2022-09-11T14:35:07.524Z,3.30
2022-09-11T14:37:45.641Z,3.10
2022-09-11T14:40:19.172Z,3.37
2022-09-11T14:42:49.846Z,3.30
2022-09-11T14:45:23.697Z,3.33
2022-09-11T14:47:54.382Z,3.50
2022-09-11T14:50:24.950Z,3.30
2022-09-11T14:52:55.353Z,3.45
2022-09-11T14:55:25.716Z,3.40
2022-09-11T14:57:56.222Z,4.08
2022-09-11T15:00:26.679Z,3.33
2022-09-11T15:02:57.124Z,3.58
2022-09-11T15:05:28.022Z,3.42
2022-09-11T15:08:00.382Z,3.95
2022-09-11T15:10:32.103Z,3.90
2022-09-11T15:13:03.016Z,4.42
2022-09-11T15:15:34.475Z,4.40
2022-09-11T15:18:05.912Z,4.53
2022-09-11T15:20:37.263Z,4.53
2022-09-11T15:23:07.573Z,3.55
2022-09-11T15:25:37.999Z,3.72
2022-09-11T15:28:09.954Z,4.00
2022-09-11T15:30:40.387Z,4.30
2022-09-11T15:33:11.413Z,4.90
2022-09-11T15:35:41.786Z,4.17
2022-09-11T15:38:12.179Z,4.40
2022-09-11T15:40:42.586Z,4.10
2022-09-11T15:43:13.470Z,4.08
2022-09-11T15:45:44.335Z,5.60
2022-09-11T15:48:14.858Z,7.30
2022-09-11T15:50:45.514Z,3.60
2022-09-11T15:53:15.818Z,3.77
2022-09-11T15:55:46.121Z,3.67
2022-09-11T15:58:16.591Z,9.73
2022-09-11T16:00:47.103Z,3.35
2022-09-11T16:03:17.690Z,3.15
2022-09-11T16:05:48.111Z,2.60
2022-09-11T16:08:18.545Z,2.65
2022-09-11T16:10:49.836Z,2.72
2022-09-11T16:13:21.132Z,3.00
2022-09-11T16:15:55.199Z,2.95
2022-09-11T16:18:25.585Z,2.70
2022-09-11T16:20:59.757Z,2.80
2022-09-11T16:23:30.063Z,3.08
2022-09-11T16:26:05.868Z,3.20
2022-09-11T16:28:38.487Z,3.00
2022-09-11T16:31:09.322Z,2.85
2022-09-11T16:33:43.840Z,2.83
2022-09-11T16:36:17.544Z,2.67
2022-09-11T16:38:50.655Z,2.90
2022-09-11T16:41:23.464Z,5.80
2022-09-11T16:43:54.977Z,3.10
2022-09-11T16:46:26.772Z,3.05
2022-09-11T16:49:01.476Z,2.60
2022-09-11T16:51:30.022Z,2.55
2022-09-11T16:54:00.740Z,2.60
2022-09-11T16:56:31.359Z,2.50
2022-09-11T16:59:02.101Z,2.60
2022-09-11T17:01:32.845Z,4.67
2022-09-11T17:04:03.759Z,5.83
2022-09-11T17:06:34.482Z,4.47
2022-09-11T17:09:05.339Z,6.50
2022-09-11T17:11:37.112Z,4.47
2022-09-11T17:14:08.153Z,3.00
2022-09-11T17:16:39.446Z,2.70
2022-09-11T17:19:10.868Z,3.00
2022-09-11T17:21:41.173Z,2.80
2022-09-11T17:24:12.710Z,3.00
2022-09-11T17:26:43.048Z,2.90
2022-09-11T17:29:13.713Z,3.25
2022-09-11T17:31:44.052Z,2.90
2022-09-11T17:34:14.657Z,2.67
2022-09-11T17:36:45.119Z,3.30
2022-09-11T17:39:15.505Z,3.60
2022-09-11T17:41:46.314Z,3.10
2022-09-11T17:44:17.043Z,3.70
2022-09-11T17:46:47.703Z,3.33
2022-09-11T17:49:18.133Z,3.20
2022-09-11T17:51:49.012Z,4.53
2022-09-11T17:54:19.390Z,3.85
2022-09-11T17:56:50.533Z,3.40
2022-09-11T17:59:21.193Z,3.92
2022-09-11T18:01:51.851Z,3.60
2022-09-11T18:04:22.295Z,3.77
2022-09-11T18:06:52.804Z,3.58
2022-09-11T18:09:23.267Z,4.00
2022-09-11T18:11:54.545Z,3.90
2022-09-11T18:14:27.596Z,4.45
2022-09-11T18:16:59.528Z,4.50
2022-09-11T18:19:30.140Z,4.72
2022-09-11T18:22:00.787Z,5.65
2022-09-11T18:24:31.151Z,5.00
2022-09-11T18:27:01.814Z,4.85
2022-09-11T18:29:32.605Z,5.22
2022-09-11T18:32:03.481Z,5.20
2022-09-11T18:34:34.322Z,5.08
2022-09-11T18:37:04.595Z,5.55
2022-09-11T18:39:35.069Z,5.60
2022-09-11T18:42:07.117Z,5.75
2022-09-11T18:44:37.437Z,6.37
2022-09-11T18:47:07.887Z,6.37
2022-09-11T18:49:38.361Z,6.20
2022-09-11T18:52:08.775Z,6.08
2022-09-11T18:54:39.351Z,6.35
2022-09-11T18:57:09.814Z,6.25
2022-09-11T18:59:40.165Z,6.67
2022-09-11T19:02:11.183Z,6.80
2022-09-11T19:04:41.827Z,6.70
2022-09-11T19:07:14.672Z,6.65
2022-09-11T19:09:46.110Z,7.42
2022-09-11T19:12:18.356Z,7.70
2022-09-11T19:14:49.392Z,7.28
2022-09-11T19:17:19.800Z,7.40
2022-09-11T19:19:51.752Z,7.83
2022-09-11T19:22:24.091Z,7.20
2022-09-11T19:24:54.422Z,7.35
2022-09-11T19:27:26.711Z,7.37
2022-09-11T19:29:57.011Z,7.08
2022-09-11T19:32:28.340Z,7.20
2022-09-11T19:35:00.269Z,7.37
2022-09-11T19:37:31.040Z,6.55
2022-09-11T19:40:01.481Z,7.40
2022-09-11T19:42:32.387Z,7.95
2022-09-11T19:45:10.250Z,9.55
2022-09-11T19:47:40.924Z,9.08
2022-09-11T19:50:13.013Z,9.10
2022-09-11T19:52:43.319Z,7.92
2022-09-11T19:55:13.748Z,10.20
2022-09-11T19:57:44.108Z,7.90
2022-09-11T20:00:14.567Z,7.17
2022-09-11T20:02:48.030Z,7.60
2022-09-11T20:05:18.609Z,7.33
2022-09-11T20:07:48.906Z,6.42
2022-09-11T20:10:19.546Z,7.08
2022-09-11T20:12:50.411Z,6.53
2022-09-11T20:15:20.860Z,6.87
2022-09-11T20:17:51.251Z,6.92
2022-09-11T20:20:21.653Z,7.40
2022-09-11T20:22:51.982Z,7.50
2022-09-11T20:25:23.582Z,7.42
2022-09-11T20:27:53.907Z,7.10
2022-09-11T20:30:25.060Z,7.05
2022-09-11T20:32:55.532Z,6.53
2022-09-11T20:35:26.064Z,7.20
2022-09-11T20:37:56.368Z,6.75
2022-09-11T20:40:26.712Z,6.60
2022-09-11T20:42:57.051Z,7.05
2022-09-11T20:45:27.404Z,6.83
2022-09-11T20:47:57.818Z,6.83
2022-09-11T20:50:28.186Z,6.47
2022-09-11T20:53:00.397Z,6.70
2022-09-11T20:55:30.584Z,6.25
2022-09-11T20:58:01.046Z,6.25
2022-09-11T21:00:31.412Z,6.20
2022-09-11T21:03:01.782Z,6.03
2022-09-11T21:05:32.241Z,5.78
2022-09-11T21:08:03.024Z,5.47
2022-09-11T21:10:37.484Z,5.47
2022-09-11T21:13:09.533Z,5.65
2022-09-11T21:15:44.697Z,4.85
2022-09-11T21:18:15.832Z,4.92
2022-09-11T21:20:54.736Z,4.75
2022-09-11T21:23:25.222Z,5.12
2022-09-11T21:25:55.821Z,4.53
2022-09-11T21:28:26.124Z,4.92
2022-09-11T21:30:58.704Z,5.05
2022-09-11T21:33:29.527Z,4.90
2022-09-11T21:35:59.893Z,4.75
2022-09-11T21:38:31.508Z,4.90
2022-09-11T21:41:04.036Z,4.47
2022-09-11T21:43:34.761Z,4.87
2022-09-11T21:46:06.823Z,4.40
2022-09-11T21:48:39.020Z,4.50
2022-09-11T21:51:17.726Z,6.30
2022-09-11T21:53:49.980Z,4.65
2022-09-11T21:56:31.981Z,4.70
2022-09-11T21:59:02.579Z,4.80
2022-09-11T22:01:33.270Z,4.62
2022-09-11T22:04:04.063Z,4.78
2022-09-11T22:06:34.478Z,4.95
2022-09-11T22:09:05.132Z,4.87
2022-09-11T22:11:35.682Z,4.92
2022-09-11T22:14:06.506Z,4.87
2022-09-11T22:16:36.889Z,5.05
2022-09-11T22:19:08.891Z,4.80
2022-09-11T22:21:39.817Z,4.60
2022-09-11T22:24:10.304Z,5.08
2022-09-11T22:26:40.816Z,4.70
2022-09-11T22:29:11.173Z,4.30
2022-09-11T22:31:41.626Z,3.83
2022-09-11T22:34:12.224Z,4.00
2022-09-11T22:36:42.546Z,3.60
2022-09-11T22:39:12.979Z,4.28
2022-09-11T22:41:43.755Z,4.12
2022-09-11T22:44:14.432Z,3.90
2022-09-11T22:46:48.740Z,4.10
2022-09-11T22:49:16.925Z,3.92
2022-09-11T22:51:47.478Z,3.60
2022-09-11T22:54:18.027Z,4.33
2022-09-11T22:56:48.439Z,3.70
2022-09-11T22:59:18.940Z,3.85
2022-09-11T23:01:49.381Z,4.05
2022-09-11T23:04:19.793Z,4.22
2022-09-11T23:07:08.182Z,3.95
2022-09-11T23:09:39.948Z,4.05
2022-09-11T23:12:10.320Z,3.70
2022-09-11T23:14:42.184Z,4.10
2022-09-11T23:17:12.559Z,4.05
2022-09-11T23:19:42.880Z,4.08
2022-09-11T23:22:13.274Z,3.60
2022-09-11T23:24:43.681Z,3.55
2022-09-11T23:27:14.086Z,3.45
2022-09-11T23:29:44.483Z,3.55
2022-09-11T23:32:14.795Z,3.75
2022-09-11T23:34:45.168Z,3.60
2022-09-11T23:37:15.484Z,3.45
2022-09-11T23:39:47.223Z,3.58
2022-09-11T23:42:18.042Z,3.55
2022-09-11T23:44:48.355Z,3.70
2022-09-11T23:47:18.745Z,3.65
2022-09-11T23:49:49.058Z,3.17
2022-09-11T23:52:19.451Z,3.70
2022-09-11T23:54:49.755Z,3.50
2022-09-11T23:57:20.257Z,3.20
2022-09-11T23:59:50.626Z,3.50
